Hardin, MT

11:18 AM MST on January 24, 2017 (GMT -0700)
Billings Logan International | | Change Station

Elev 3648 ft 45.81 °N, 108.54 °W | Updated 25 minutes ago

Overcast
Overcast
20 °F
Feels Like 13 °F
N
5
Wind Variable Wind from East

Today
High -- | Low -- °F
--% Chance of Precip.
Yesterday
High -- | Low -- °F
Precip. -- in
Pressure 30.03 in
Visibility 10.0 miles
Clouds Mostly Cloudy 700 ft
Overcast 1500 ft
Windchill 13 °F
Dew Point 17 °F
Humidity 89%
Rainfall 0.01 in
Snow Depth Not available.
7:40 AM 5:05 PM
Waning Crescent, 10% visible
METAR KBIL 241753Z 08004KT 10SM BKN007 OVC015 M07/M08 A2989 RMK AO2 SLP167 4/002 933001 60000 T10671083 11056 21072 52012
Pressure 30.03 in
Visibility 10.0 miles
Clouds Mostly Cloudy 700 ft
Overcast 1500 ft
Windchill 13 °F
Dew Point 17 °F
Humidity 89%
Rainfall 0.01 in
Snow Depth Not available.
7:40 AM 5:05 PM
Waning Crescent, 10% visible
METAR KBIL 241753Z 08004KT 10SM BKN007 OVC015 M07/M08 A2989 RMK AO2 SLP167 4/002 933001 60000 T10671083 11056 21072 52012

Get Your Daily Forecast Email!

Thanks for signing up!

Be on the lookout for a verification email in your inbox.

You'll start receiving the daily forecast at 8 AM.

×

10-Day Weather Forecast

Almanac

Astronomy

Jan. 24, 2017 Rise Set
Actual Time
Civil Twilight
Nautical Twilight
Astronomical Twilight
Moon
Length of Visible Light
Length of Day
Tomorrow will be .
, % of the Moon is Illuminated

Today's Extremes

State Highs State Lows

Community

WunderPhotos

Upload Photos

1,962,540 photos uploaded!

WunderBlog® & News

Nearby

Air Quality

  Air Quality AQ Index Pollutant
Not available.

Snow Depth

Station Depth Elevation

Earthquake Activity

City Distance Mag. Time & Date
Minimum magnitude displayed is 2.5.

Coastal Water Temperatures

Place Temperature

Stations

Nearby Weather Stations

Station Location Temp. Windchill Dew Point Humidity Wind Precip. Elev Updated Type
                   

Watches & Warnings

There are currently no watches in effect.